logo tempoitalia

Diretta Meteo Kruger Mpumalang, Sud Africalunedì 31 agosto ore 07:00

Mappa
Sereno 12 °C Sereno 24 Ore: T.min 12 T.max 26
Ponente Nord Km/h 0 Punto di rugiada: 8 °C Umidità: 76% Visibilità: 10 Km
Il sole sorge alle: 06:08 Il sole tramonta alle: 17:43
31 Agosto 2026 07:00 tempo osservato: Sereno Sereno 12 76 1026 vento: Nord N 0
31 Agosto 2026 06:00 tempo osservato: Sereno Sereno 13 62 1026 vento: Nord N 1.8
31 Agosto 2026 05:00 tempo osservato: Sereno Sereno 13 62 1025 vento: Nord N 1.8
31 Agosto 2026 04:00 tempo osservato: Sereno Sereno 13 71 1025 vento: Nord N 0
31 Agosto 2026 03:00 tempo osservato: Sereno Sereno 14 62 1025 vento: Nord N 1.8
31 Agosto 2026 02:00 tempo osservato: Sereno Sereno 15 58 1025 vento: Nord N 1.8
31 Agosto 2026 01:00 tempo osservato: Sereno Sereno 16 55 1025 vento: Nord N 3.7
31 Agosto 2026 00:00 tempo osservato: Sereno Sereno 16 55 1026 vento: Nord E 7.4
30 Agosto 2026 23:00 tempo osservato: Sereno Sereno 16 51 1026 vento: Nord E/NE 11.1
30 Agosto 2026 22:00 tempo osservato: Sereno Sereno 17 48 1025 vento: Nord E/NE 11.1
30 Agosto 2026 21:00 tempo osservato: Sereno Sereno 18 42 1025 vento: Nord E/NE 14.8
30 Agosto 2026 20:00 tempo osservato: Sereno Sereno 19 39 1024 vento: Nord E/NE 16.7
30 Agosto 2026 19:00 tempo osservato: Sereno Sereno 20 34 1023 vento: Nord E/NE 14.8
30 Agosto 2026 18:00 tempo osservato: Sereno Sereno 22 28 1022 vento: Nord NE 13
30 Agosto 2026 17:00 tempo osservato: Sereno Sereno 25 23 1021 vento: Nord E/NE 13
30 Agosto 2026 16:00 tempo osservato: Sereno Sereno 26 20 1021 vento: Nord NE 13
30 Agosto 2026 15:00 tempo osservato: Sereno Sereno 26 24 1021 vento: Nord NE 9.3
30 Agosto 2026 14:00 tempo osservato: Sereno Sereno 26 24 1022 vento: Nord N 5.5
30 Agosto 2026 13:00 tempo osservato: Sereno Sereno 25 27 1023 vento: Nord NE 11.1
30 Agosto 2026 12:00 tempo osservato: Sereno Sereno 24 31 1024 vento: Nord NE 9.3
30 Agosto 2026 11:00 tempo osservato: Sereno Sereno 23 35 1024 vento: Nord N 5.5
30 Agosto 2026 10:00 tempo osservato: Sereno Sereno 22 35 1025 vento: Nord N 3.7
30 Agosto 2026 09:26 tempo osservato: Sereno Sereno 20 42 1025 vento: Nord N 1.8
30 Agosto 2026 09:00 tempo osservato: Sereno Sereno 18 48 1025 vento: Nord N 1.8
30 Agosto 2026 08:35 tempo osservato: Sereno Sereno 17 51 1025 vento: Nord N 3.7
30 Agosto 2026 08:00 tempo osservato: Sereno Sereno 14 62 1025 vento: Nord N 3.7